Ankavandra Airport


Codes: FMMK/JVA
Name: Ankavandra Airport
City: Ankavandra
Country: Madagascar
Elevation: 427 ft.

Photos at Ankavandra Airport


   Photos courtesy of SpottingLog. You can add your own sightings and photos by signing up for a free trial today.



No photos found.

Weather at Ankavandra Airport


Time (UTC)DescriptionTempratureWindCloud coverageVisibilityPressureHumidity
21-Jun-2024 12:00Clear Sky30°C7 mph, SW0%10000m1017hPa30%
21-Jun-2024 15:00Clear Sky29°C4 mph, SE0%10000m1017hPa35%
21-Jun-2024 18:00Clear Sky24°C0 mph, SE0%10000m1019hPa48%
21-Jun-2024 21:00Clear Sky20°C0 mph, W0%10000m1020hPa63%
22-Jun-2024 00:00Clear Sky19°C2 mph, E0%10000m1020hPa66%
22-Jun-2024 03:00Clear Sky17°C4 mph, E0%10000m1020hPa68%
22-Jun-2024 06:00Clear Sky24°C2 mph, E0%10000m1022hPa48%
22-Jun-2024 09:00Clear Sky29°C4 mph, SW0%10000m1020hPa33%
22-Jun-2024 12:00Clear Sky30°C7 mph, SW0%10000m1018hPa29%
22-Jun-2024 15:00Clear Sky24°C4 mph, SE0%10000m1018hPa40%
22-Jun-2024 18:00Clear Sky21°C2 mph, SE0%10000m1020hPa59%
22-Jun-2024 21:00Clear Sky19°C2 mph, S0%10000m1021hPa64%
23-Jun-2024 00:00Clear Sky18°C2 mph, E0%10000m1020hPa64%
23-Jun-2024 03:00Clear Sky17°C2 mph, E0%10000m1021hPa65%
23-Jun-2024 06:00Clear Sky24°C2 mph, SE0%10000m1022hPa45%
23-Jun-2024 09:00Clear Sky30°C4 mph, SW0%10000m1020hPa28%
23-Jun-2024 12:00Clear Sky31°C7 mph, SW0%10000m1017hPa26%
23-Jun-2024 15:00Clear Sky25°C4 mph, SE0%10000m1018hPa39%
23-Jun-2024 18:00Clear Sky22°C2 mph, NE1%10000m1020hPa46%
23-Jun-2024 21:00Clear Sky20°C2 mph, NE3%10000m1021hPa54%
24-Jun-2024 00:00Clear Sky18°C2 mph, NE2%10000m1020hPa56%
24-Jun-2024 03:00Clear Sky17°C2 mph, E0%10000m1021hPa59%
24-Jun-2024 06:00Clear Sky24°C2 mph, SE0%10000m1022hPa43%
24-Jun-2024 09:00Clear Sky31°C4 mph, SE0%10000m1019hPa28%
24-Jun-2024 12:00Few Clouds31°C9 mph, SW19%10000m1017hPa27%
24-Jun-2024 15:00Overcast Clouds27°C4 mph, SE100%10000m1018hPa35%
24-Jun-2024 18:00Overcast Clouds24°C4 mph, NE95%10000m1020hPa43%
24-Jun-2024 21:00Broken Clouds22°C2 mph, E75%10000m1021hPa48%
25-Jun-2024 00:00Broken Clouds20°C4 mph, E78%10000m1021hPa54%
25-Jun-2024 03:00Scattered Clouds18°C4 mph, E47%10000m1021hPa61%
25-Jun-2024 06:00Few Clouds24°C2 mph, SE24%10000m1022hPa44%
25-Jun-2024 09:00Clear Sky30°C4 mph, S0%10000m1020hPa29%
25-Jun-2024 12:00Clear Sky31°C9 mph, SW7%10000m1017hPa26%
25-Jun-2024 15:00Broken Clouds26°C4 mph, SE68%10000m1018hPa35%
25-Jun-2024 18:00Broken Clouds24°C2 mph, S72%10000m1021hPa41%
25-Jun-2024 21:00Broken Clouds22°C2 mph, NE65%10000m1020hPa51%
26-Jun-2024 00:00Scattered Clouds19°C0 mph, SE35%10000m1019hPa60%
26-Jun-2024 03:00Few Clouds19°C2 mph, E20%10000m1020hPa63%
26-Jun-2024 06:00Scattered Clouds25°C2 mph, SE25%10000m1021hPa47%
26-Jun-2024 09:00Scattered Clouds31°C4 mph, S29%10000m1019hPa31%